Flight Track Log - Related Links

Times and Time Zones

All times are in EDT time to prevent confusion due to time zone crossing. See the DAL1246 flight status page for this flight to view local times or setup timezone preferences in your user account.

Time Position Orientation Groundspeed Altitude Reporting Facility
EDT Latitude Longitude Course Direction KTS MPH feet Rate Location/Type
Mon 10:01:38 AM 33.6500 -84.3667 59° Northeast 185 213 2,300  Level Atlanta TRACON
Mon 10:02:38 AM 33.6833 -84.3000 64° Northeast 264 304 4,500 2,300 Climbing Atlanta TRACON
Mon 10:03:38 AM 33.7167 -84.2167 68° East 264 304 6,900 2,283 Climbing Atlanta TRACON
Mon 10:05:42 AM 33.7714 -84.0514 66° East 283 326 11,500 1,770 Climbing Atlanta Center
Mon 10:06:41 AM 33.7964 -83.9839 70° East 277 319 12,300 807 Climbing Atlanta Center
Mon 10:07:41 AM 33.8358 -83.8536 73° East 314 361 13,100 1,500 Climbing Atlanta Center
Mon 10:08:41 AM 33.8669 -83.7336 70° East 356 410 15,300 1,983 Climbing Atlanta Center
Mon 10:09:42 AM 33.9042 -83.6133 50° Northeast 376 433 17,100 1,650 Climbing Atlanta Center
Mon 10:10:41 AM 33.9725 -83.5153 50° Northeast 371 427 18,600 1,513 Climbing Atlanta Center
Mon 10:11:41 AM 34.0431 -83.4119 49° Northeast 391 450 20,100 1,350 Climbing Atlanta Center
Mon 10:12:41 AM 34.1217 -83.3011 57° Northeast 391 450 21,300 1,400 Climbing Atlanta Center
Mon 10:13:41 AM 34.1836 -83.1875 46° Northeast 409 471 22,900 800 Climbing Atlanta Center
Mon 10:14:41 AM 34.2683 -83.0811 37° Northeast 409 471 22,900 50 Level Atlanta Center
Mon 10:15:41 AM 34.3658 -82.9919 37° Northeast 424 488 23,000 50 Climbing Atlanta Center
Mon 10:16:41 AM 34.4672 -82.9000 43° Northeast 441 507 23,000  Level Atlanta Center
Mon 10:17:41 AM 34.5539 -82.8006 47° Northeast 447 514 23,000  Level Atlanta Center
Mon 10:18:41 AM 34.6383 -82.6906 54° Northeast 432 497 23,000 250 Level Atlanta Center
Mon 10:19:41 AM 34.7019 -82.5836 54° Northeast 432 497 23,500 893 Climbing Atlanta Center
Mon 10:20:42 AM 34.7733 -82.4658 63° Northeast 432 497 24,800 1,100 Climbing Atlanta Center
Mon 10:21:41 AM 34.8281 -82.3358 63° Northeast 427 491 25,700 1,059 Climbing Atlanta Center
Mon 10:22:41 AM 34.8844 -82.2031 57° Northeast 427 491 26,900 1,150 Climbing Atlanta Center
Mon 10:23:41 AM 34.9556 -82.0672 58° Northeast 433 498 28,000 450 Climbing Atlanta Center
Mon 10:24:41 AM 35.0142 -81.9517 33° Northeast 439 505 27,800 -350 Descending Atlanta Center
Mon 10:25:41 AM 35.1169 -81.8703 26° Northeast 434 499 27,300 -1,250 Descending Atlanta Center
Mon 10:26:41 AM 35.2286 -81.8039 34° Northeast 435 501 25,300 -1,750 Descending Atlanta Center
Mon 10:27:41 AM 35.3292 -81.7197 30° Northeast 435 501 23,800 -1,400 Descending Atlanta Center
Mon 10:28:41 AM 35.4258 -81.6506 33° Northeast 413 475 22,500 -1,400 Descending Atlanta Center
Mon 10:29:41 AM 35.5328 -81.5658 38° Northeast 408 470 21,000 -800 Descending Atlanta Center
Mon 10:30:41 AM 35.6206 -81.4814 34° Northeast 401 461 20,900 -750 Descending Atlanta Center
Mon 10:31:41 AM 35.7150 -81.4017 30° Northeast 406 467 19,500 -1,339 Descending Atlanta Center
Mon 10:32:42 AM 35.8217 -81.3242 38° Northeast 425 489 18,200 -1,100 Descending Atlanta Center
Mon 10:33:41 AM 35.9056 -81.2444 36° Northeast 425 489 17,300 -1,160 Descending Atlanta Center
Mon 10:34:41 AM 35.9933 -81.1644 38° Northeast 408 470 15,900 -1,350 Descending Atlanta Center
Mon 10:35:41 AM 36.0747 -81.0844 49° Northeast 385 443 14,600 -1,250 Descending Atlanta Center
Mon 10:36:41 AM 36.1414 -80.9894 77° East 369 425 13,400 -1,300 Descending Atlanta Center
Mon 10:37:41 AM 36.1633 -80.8703 95° East 349 402 12,000 -800 Descending Atlanta Center
Mon 10:39:41 AM 36.1461 -80.6139 103° East 352 405 11,000 -331 Descending Atlanta Center
Mon 10:40:42 AM 36.1239 -80.4939 100° East 352 405 11,000 -397 Level Atlanta Center
Mon 10:41:42 AM 36.1083 -80.3892 101° East 352 405 10,200 -958 Descending Atlanta Center
Mon 10:42:41 AM 36.0925 -80.2847 101° East 335 386 9,100 -1,160 Descending Atlanta Center
Mon 10:43:41 AM 36.0772 -80.1903 80° East 302 348 7,900 -1,050 Descending Atlanta Center
Mon 10:44:41 AM 36.0892 -80.1075 35° Northeast 278 320 7,000 -450 Descending Atlanta Center
Mon 10:45:41 AM 36.1561 -80.0503 122° Southeast 225 259 7,000  Level Atlanta Center
Mon 10:53:32 AM 35.7668 -79.2820 302° West  Level Estimated
Mon 10:54:32 AM 36.1000 -79.9333 282° West  Level FlightAware Approximate
Mon 10:55:32 AM 36.1192 -80.0465 102° East  Level Estimated
Mon 10:56:32 AM 36.1000 -79.9333 282° West  Level FlightAware Approximate
Mon 10:57:32 AM 36.1192 -80.0465 102° East  Level Estimated
Mon 10:58:32 AM 36.1000 -79.9333 282° West  Level FlightAware Approximate
Mon 10:59:32 AM 36.1192 -80.0465 102° East  Level Estimated
Mon 11:00:32 AM 36.1000 -79.9333 102° East  Level FlightAware Approximate

Login

Don't have an account? Register now (free) for customized features, flight alerts, and more!